Time;durP1;ratioP1;P1;durP2;ratioP2;P2;SDS_P1;SDS_P2;PMS_P1;PMS_P2;Temp;Humidity;BMP_temperature;BMP_pressure;BME280_temperature;BME280_humidity;BME280_pressure;Samples;Min_cycle;Max_cycle;Signal;HPM_P1;HPM_P2
2022/05/12 00:02:49;;;;;;;10.73;9.73;;;18.40;98.60;;;;;;6261794;28;20220;-65
2022/05/12 00:05:52;;;;;;;11.80;10.27;;;18.40;98.80;;;;;;6259648;28;20533;-64
2022/05/12 00:08:55;;;;;;;10.17;9.23;;;18.30;99.10;;;;;;6250091;28;20236;-65
2022/05/12 00:12:00;;;;;;;11.00;9.90;;;18.30;98.80;;;;;;6250138;28;20676;-65
2022/05/12 00:15:06;;;;;;;10.90;9.80;;;18.30;98.90;;;;;;6249867;28;20247;-65
2022/05/12 00:18:10;;;;;;;10.93;9.60;;;18.30;99.00;;;;;;6250176;28;20312;-65
2022/05/12 00:21:13;;;;;;;9.67;8.87;;;18.20;99.20;;;;;;6250182;28;20315;-65
2022/05/12 00:24:17;;;;;;;10.63;9.63;;;18.10;99.10;;;;;;6250600;28;20551;-65
2022/05/12 00:27:22;;;;;;;10.60;9.73;;;18.10;99.30;;;;;;6240466;28;20250;-65
2022/05/12 00:30:25;;;;;;;11.20;10.10;;;18.10;99.40;;;;;;6250272;28;20652;-65
2022/05/12 00:33:29;;;;;;;10.57;9.33;;;18.00;99.40;;;;;;6249838;28;20558;-65
2022/05/12 00:36:32;;;;;;;9.53;8.73;;;18.00;99.40;;;;;;6249701;28;20475;-64
2022/05/12 00:39:36;;;;;;;11.23;10.13;;;18.10;99.50;;;;;;6252114;28;20466;-65
2022/05/12 00:42:54;;;;;;;10.23;9.37;;;18.00;99.40;;;;;;6272965;28;20508;-65
2022/05/12 00:45:58;;;;;;;10.50;9.60;;;18.00;99.50;;;;;;6274055;28;20474;-64
2022/05/12 00:49:04;;;;;;;10.30;9.40;;;17.90;99.40;;;;;;6274209;28;20682;-64
2022/05/12 00:52:12;;;;;;;10.90;9.90;;;17.90;99.50;;;;;;6274420;28;20954;-65
2022/05/12 00:55:20;;;;;;;10.87;10.00;;;17.90;99.50;;;;;;6274900;28;20466;-65
2022/05/12 00:58:26;;;;;;;10.83;9.83;;;17.90;99.50;;;;;;6274436;28;20985;-64
2022/05/12 01:01:29;;;;;;;10.13;9.23;;;17.90;99.50;;;;;;6271292;28;20482;-65
2022/05/12 01:04:33;;;;;;;11.57;10.43;;;17.90;99.40;;;;;;6259458;28;20470;-64
2022/05/12 01:07:37;;;;;;;10.67;9.67;;;17.90;99.30;;;;;;6256921;28;20474;-64
2022/05/12 01:10:41;;;;;;;10.53;9.63;;;17.90;99.20;;;;;;6254537;28;20489;-65
2022/05/12 01:13:51;;;;;;;11.07;9.97;;;18.00;99.30;;;;;;6254211;28;20204;-65
2022/05/12 01:16:56;;;;;;;10.90;10.00;;;17.90;99.30;;;;;;6253861;28;20550;-65
2022/05/12 01:19:59;;;;;;;13.90;10.93;;;17.90;99.40;;;;;;6260960;28;20227;-66
2022/05/12 01:23:06;;;;;;;10.83;9.83;;;17.90;99.30;;;;;;6264668;28;20485;-61
2022/05/12 01:26:13;;;;;;;10.87;9.97;;;17.90;99.40;;;;;;6262085;28;20479;-63
2022/05/12 01:29:17;;;;;;;10.37;9.47;;;17.90;99.40;;;;;;6263793;28;20465;-63
2022/05/12 01:32:22;;;;;;;11.40;10.20;;;17.90;99.40;;;;;;6277538;28;20985;-65
2022/05/12 01:35:26;;;;;;;11.63;9.37;;;17.90;99.40;;;;;;6275057;28;20230;-65
2022/05/12 01:38:29;;;;;;;10.00;9.00;;;17.90;99.40;;;;;;6269818;28;20463;-64
2022/05/12 01:41:34;;;;;;;14.23;10.20;;;17.90;99.40;;;;;;6273193;28;20467;-63
2022/05/12 01:44:38;;;;;;;13.00;11.07;;;17.90;99.40;;;;;;6253776;28;20475;-63
2022/05/12 01:47:42;;;;;;;11.43;10.43;;;17.80;99.60;;;;;;6253764;28;20784;-64
2022/05/12 01:50:47;;;;;;;11.23;9.77;;;17.70;99.60;;;;;;6253420;28;20974;-63
2022/05/12 01:53:50;;;;;;;10.23;9.43;;;17.70;99.60;;;;;;6253576;28;20947;-63
2022/05/12 01:56:56;;;;;;;13.00;10.53;;;17.60;99.70;;;;;;6252922;28;20494;-63
2022/05/12 01:59:59;;;;;;;10.50;9.20;;;17.50;99.80;;;;;;6253135;28;20482;-63
2022/05/12 02:03:02;;;;;;;10.80;9.90;;;17.40;99.90;;;;;;6262109;28;20471;-64
2022/05/12 02:06:06;;;;;;;11.77;10.70;;;17.40;99.90;;;;;;6277905;28;20458;-64
2022/05/12 02:09:10;;;;;;;11.30;10.20;;;17.40;99.90;;;;;;6277767;28;21072;-65
2022/05/12 02:12:14;;;;;;;14.63;10.70;;;17.30;99.90;;;;;;6277725;28;20478;-64
2022/05/12 02:15:17;;;;;;;11.73;10.63;;;17.30;99.90;;;;;;6277876;28;20470;-62
2022/05/12 02:18:21;;;;;;;11.33;10.23;;;17.20;99.90;;;;;;6276526;28;20973;-64
2022/05/12 02:21:24;;;;;;;11.30;10.20;;;17.20;99.90;;;;;;6277648;28;20481;-64
2022/05/12 02:24:27;;;;;;;12.70;11.40;;;17.20;99.90;;;;;;6277511;28;20463;-63
2022/05/12 02:27:32;;;;;;;11.03;10.13;;;17.10;99.90;;;;;;6277154;28;20478;-63
2022/05/12 02:30:42;;;;;;;11.07;10.07;;;17.10;99.90;;;;;;6279373;28;20484;-62
2022/05/12 02:33:54;;;;;;;10.90;9.80;;;17.00;99.90;;;;;;6284873;28;20481;-60
2022/05/12 02:37:04;;;;;;;11.23;10.07;;;17.00;99.90;;;;;;6278373;28;20958;-62
2022/05/12 02:40:11;;;;;;;10.33;9.43;;;17.00;99.90;;;;;;6278221;28;20786;-62
2022/05/12 02:43:25;;;;;;;11.27;10.33;;;17.00;99.90;;;;;;6277536;28;20486;-62
2022/05/12 02:46:28;;;;;;;11.60;10.60;;;17.00;99.90;;;;;;6276579;28;20485;-62
2022/05/12 02:49:32;;;;;;;12.33;11.10;;;17.00;99.90;;;;;;6276792;28;20481;-62
2022/05/12 02:52:35;;;;;;;12.07;10.87;;;17.00;99.90;;;;;;6277358;28;20493;-62
2022/05/12 02:55:38;;;;;;;10.70;9.60;;;17.00;99.90;;;;;;6277392;28;20458;-62
2022/05/12 02:58:43;;;;;;;12.00;11.00;;;17.00;99.90;;;;;;6277405;28;20541;-62
2022/05/12 03:01:46;;;;;;;10.37;9.37;;;16.90;99.90;;;;;;6277782;28;20443;-63
2022/05/12 03:04:49;;;;;;;10.43;9.53;;;16.90;99.90;;;;;;6276868;28;20438;-62
2022/05/12 03:07:53;;;;;;;12.13;11.00;;;16.90;99.90;;;;;;6276392;28;20481;-64
2022/05/12 03:10:56;;;;;;;11.40;10.37;;;16.90;99.90;;;;;;6276630;28;20438;-63
2022/05/12 03:14:00;;;;;;;12.93;10.87;;;16.90;99.90;;;;;;6276226;28;20464;-65
2022/05/12 03:17:04;;;;;;;10.90;9.83;;;16.80;99.90;;;;;;6276164;28;20737;-63
2022/05/12 03:20:10;;;;;;;11.80;10.70;;;16.90;99.90;;;;;;6276478;28;20470;-60
2022/05/12 03:23:13;;;;;;;11.83;10.70;;;16.90;99.90;;;;;;6275992;28;20478;-60
2022/05/12 03:26:17;;;;;;;11.50;10.50;;;16.90;99.90;;;;;;6275766;28;20796;-61
2022/05/12 03:29:22;;;;;;;10.83;9.80;;;17.00;99.90;;;;;;6275743;28;20466;-62
2022/05/12 03:32:25;;;;;;;10.87;9.77;;;17.00;99.90;;;;;;6275070;28;20485;-62
2022/05/12 03:35:28;;;;;;;11.23;9.47;;;17.00;99.90;;;;;;6275940;28;20481;-62
2022/05/12 03:38:32;;;;;;;12.03;10.33;;;17.00;99.90;;;;;;6275721;28;20489;-63
2022/05/12 03:41:35;;;;;;;10.80;9.80;;;17.00;99.90;;;;;;6275198;28;20472;-62
2022/05/12 03:44:49;;;;;;;13.37;9.90;;;17.00;99.90;;;;;;6275647;28;20988;-64
2022/05/12 03:47:55;;;;;;;11.93;9.83;;;17.10;99.90;;;;;;6275558;28;20471;-64
2022/05/12 03:50:58;;;;;;;13.93;9.40;;;17.10;99.90;;;;;;6275737;28;20531;-64
2022/05/12 03:54:03;;;;;;;10.43;9.47;;;17.10;99.90;;;;;;6275566;28;20458;-64
2022/05/12 03:57:07;;;;;;;11.23;10.00;;;17.10;99.90;;;;;;6275542;28;20470;-61
2022/05/12 04:00:15;;;;;;;12.23;9.30;;;17.10;99.90;;;;;;6275106;28;20815;-61
2022/05/12 04:03:18;;;;;;;11.80;10.17;;;17.10;99.90;;;;;;6275439;28;20466;-60
2022/05/12 04:06:21;;;;;;;11.30;10.00;;;17.20;99.90;;;;;;6274925;28;20477;-61
2022/05/12 04:09:24;;;;;;;11.37;10.27;;;17.20;99.90;;;;;;6275098;28;20474;-61
2022/05/12 04:12:28;;;;;;;11.80;10.50;;;17.30;99.90;;;;;;6275256;28;20478;-61
2022/05/12 04:15:33;;;;;;;9.20;8.30;;;17.40;99.80;;;;;;6275067;28;20973;-64
2022/05/12 04:18:36;;;;;;;10.20;9.30;;;17.50;99.60;;;;;;6275589;28;20471;-64
2022/05/12 04:21:40;;;;;;;9.63;8.73;;;17.60;99.90;;;;;;6275196;28;20466;-64
2022/05/12 04:24:43;;;;;;;10.63;9.67;;;17.60;99.40;;;;;;6275466;28;20474;-63
2022/05/12 04:27:47;;;;;;;11.43;9.57;;;17.60;99.30;;;;;;6275968;28;20478;-64
2022/05/12 04:30:52;;;;;;;11.97;10.43;;;17.60;99.30;;;;;;6275109;28;20474;-64
2022/05/12 04:37:16;;;;;;;11.43;10.47;;;17.70;99.00;;;;;;6274564;28;20478;-66
2022/05/12 04:40:21;;;;;;;12.23;9.93;;;17.80;99.00;;;;;;6274651;28;20938;-65
2022/05/12 04:43:24;;;;;;;13.80;9.50;;;17.80;98.80;;;;;;6270203;28;20478;-64
2022/05/12 04:46:29;;;;;;;10.53;9.43;;;17.90;98.70;;;;;;6279862;28;20474;-66
2022/05/12 04:49:33;;;;;;;13.00;10.50;;;17.90;98.70;;;;;;6280259;28;20543;-65
2022/05/12 04:52:37;;;;;;;11.67;10.43;;;18.10;98.60;;;;;;6281014;28;20507;-66
2022/05/12 04:55:41;;;;;;;11.37;9.50;;;18.30;98.30;;;;;;6280345;28;20517;-65
2022/05/12 04:58:44;;;;;;;9.50;8.60;;;18.40;97.70;;;;;;6279515;28;20675;-64
2022/05/12 05:01:48;;;;;;;10.77;9.70;;;18.60;97.20;;;;;;6279521;28;20203;-64
2022/05/12 05:04:51;;;;;;;11.33;9.20;;;18.80;97.30;;;;;;6279115;28;20291;-65
2022/05/12 05:07:55;;;;;;;13.77;9.70;;;18.90;96.50;;;;;;6278861;28;20246;-65
2022/05/12 05:10:58;;;;;;;19.03;9.97;;;19.10;96.50;;;;;;6279319;28;20231;-64
2022/05/12 05:14:01;;;;;;;11.37;10.10;;;19.30;96.10;;;;;;6279261;28;20231;-64
2022/05/12 05:17:05;;;;;;;11.50;9.77;;;19.50;95.60;;;;;;6279359;28;20236;-65
2022/05/12 05:20:12;;;;;;;10.20;9.30;;;19.50;95.40;;;;;;6278961;28;20250;-64
2022/05/12 05:23:16;;;;;;;10.37;9.30;;;19.70;95.40;;;;;;6279217;28;20227;-65
2022/05/12 05:26:19;;;;;;;13.67;9.80;;;19.80;95.30;;;;;;6278574;28;20238;-66
2022/05/12 05:29:22;;;;;;;9.10;8.20;;;20.00;94.10;;;;;;6279117;28;20231;-64
2022/05/12 05:32:27;;;;;;;10.93;9.80;;;20.20;93.90;;;;;;6278425;28;20676;-64
2022/05/12 05:35:30;;;;;;;10.30;9.40;;;20.30;93.50;;;;;;6278607;28;20630;-64
2022/05/12 05:38:33;;;;;;;10.23;9.23;;;20.50;93.00;;;;;;6278376;28;20239;-64
2022/05/12 05:41:38;;;;;;;11.17;10.17;;;20.70;92.70;;;;;;6278717;28;20224;-65
2022/05/12 05:44:42;;;;;;;10.30;9.30;;;21.00;92.50;;;;;;6278610;28;20551;-64
2022/05/12 05:47:48;;;;;;;12.40;10.50;;;21.40;91.70;;;;;;6278643;28;20235;-64
2022/05/12 05:54:12;;;;;;;12.10;10.10;;;22.60;90.20;;;;;;6277228;28;20683;-64
2022/05/12 05:57:20;;;;;;;11.70;9.80;;;23.20;87.30;;;;;;6278167;28;20240;-63
2022/05/12 06:00:24;;;;;;;10.87;9.87;;;23.70;85.20;;;;;;6278165;28;20227;-65
2022/05/12 06:03:29;;;;;;;12.93;10.20;;;24.20;82.40;;;;;;6278057;28;20223;-64
2022/05/12 06:06:32;;;;;;;10.70;9.43;;;24.70;80.50;;;;;;6277663;28;20246;-65
2022/05/12 06:09:35;;;;;;;12.17;9.17;;;25.50;78.70;;;;;;6277662;28;20235;-65
2022/05/12 06:12:38;;;;;;;13.27;9.47;;;26.00;75.30;;;;;;6277537;28;20242;-65
2022/05/12 06:15:42;;;;;;;13.27;9.70;;;26.50;72.70;;;;;;6278328;28;20231;-65
2022/05/12 06:18:47;;;;;;;10.17;9.27;;;26.90;70.00;;;;;;6279875;28;20235;-65
2022/05/12 06:21:51;;;;;;;11.67;10.00;;;27.70;67.20;;;;;;6279952;28;20267;-65
2022/05/12 06:24:54;;;;;;;11.60;10.40;;;28.20;63.50;;;;;;6278315;28;20238;-65
2022/05/12 06:27:57;;;;;;;11.03;9.93;;;28.80;60.40;;;;;;6277664;28;20231;-65
2022/05/12 06:31:00;;;;;;;14.83;10.60;;;29.40;57.70;;;;;;6277596;28;20566;-65
2022/05/12 06:34:05;;;;;;;15.23;10.60;;;29.80;56.20;;;;;;6277463;28;20234;-65
2022/05/12 06:37:08;;;;;;;13.90;11.00;;;30.20;57.20;;;;;;6277413;28;20268;-65
2022/05/12 06:40:12;;;;;;;12.90;11.00;;;31.20;55.10;;;;;;6277290;28;20227;-65
2022/05/12 06:43:23;;;;;;;14.23;11.23;;;31.90;53.30;;;;;;6276925;28;20228;-66
2022/05/12 06:46:26;;;;;;;10.18;9.07;;;32.50;49.70;;;;;;6276887;28;20675;-65
2022/05/12 06:49:34;;;;;;;11.73;10.65;;;33.10;49.10;;;;;;6276998;28;20235;-65
2022/05/12 06:52:38;;;;;;;11.93;10.68;;;33.80;47.60;;;;;;6264666;28;20689;-66
2022/05/12 06:55:41;;;;;;;14.40;9.98;;;34.30;45.60;;;;;;6252113;28;20219;-65
2022/05/12 06:58:44;;;;;;;13.93;10.30;;;34.90;44.20;;;;;;6251900;28;20228;-66
2022/05/12 07:01:47;;;;;;;10.45;9.60;;;35.40;43.10;;;;;;6253216;28;20218;-65
2022/05/12 07:04:53;;;;;;;11.50;10.40;;;35.80;41.60;;;;;;6276696;28;20199;-65
2022/05/12 07:07:56;;;;;;;12.40;11.20;;;36.40;40.20;;;;;;6275944;28;20310;-65
2022/05/12 07:10:59;;;;;;;11.32;10.35;;;36.40;39.50;;;;;;6276985;28;20227;-65
2022/05/12 07:14:03;;;;;;;12.30;11.10;;;37.10;38.70;;;;;;6258747;28;20227;-65
2022/05/12 07:17:06;;;;;;;10.57;9.57;;;37.10;37.10;;;;;;6250855;28;20250;-66
2022/05/12 07:27:16;;;;;;;11.88;10.63;;;37.80;36.50;;;;;;6241042;28;20242;-65
2022/05/12 07:30:19;;;;;;;11.52;10.57;;;38.80;34.90;;;;;;6232786;28;20302;-65
2022/05/12 07:33:23;;;;;;;12.00;10.88;;;40.00;33.50;;;;;;6234115;28;20232;-66
2022/05/12 07:36:29;;;;;;;15.57;11.40;;;40.80;32.30;;;;;;6258978;28;20238;-65
2022/05/12 07:39:34;;;;;;;14.98;10.90;;;42.00;30.50;;;;;;6255329;28;20235;-66
2022/05/12 07:42:38;;;;;;;12.55;11.10;;;42.90;29.20;;;;;;6250300;28;20676;-66
2022/05/12 07:45:41;;;;;;;15.93;9.60;;;43.70;28.10;;;;;;6249660;28;20227;-65
2022/05/12 07:48:45;;;;;;;12.45;10.75;;;44.30;27.30;;;;;;6249699;28;20235;-65
2022/05/12 07:51:50;;;;;;;13.55;10.85;;;44.90;26.20;;;;;;6249793;28;20265;-65
2022/05/12 07:54:53;;;;;;;11.23;10.15;;;45.50;25.60;;;;;;6237486;28;20232;-66
2022/05/12 07:57:56;;;;;;;11.90;10.63;;;46.30;25.00;;;;;;6249358;28;20231;-66
2022/05/12 08:00:59;;;;;;;17.17;9.82;;;46.80;24.50;;;;;;6235261;28;20561;-66
2022/05/12 08:04:03;;;;;;;10.13;9.43;;;47.40;23.90;;;;;;6250100;28;20227;-66
2022/05/12 08:07:08;;;;;;;11.88;8.98;;;47.70;23.30;;;;;;6249698;28;20236;-64
2022/05/12 08:10:18;;;;;;;10.00;8.63;;;47.70;23.00;;;;;;6250497;28;20705;-63
2022/05/12 08:13:21;;;;;;;11.57;9.70;;;48.20;22.50;;;;;;6251252;28;20232;-67
2022/05/12 08:16:25;;;;;;;11.50;10.32;;;48.10;22.50;;;;;;6250323;28;20243;-66
2022/05/12 08:19:29;;;;;;;11.00;9.32;;;47.80;23.20;;;;;;6251323;28;20227;-67
2022/05/12 08:22:34;;;;;;;10.13;9.20;;;47.10;23.40;;;;;;6252298;28;20234;-64
2022/05/12 08:25:37;;;;;;;11.02;9.95;;;46.00;24.00;;;;;;6245432;28;20225;-66
2022/05/12 08:28:40;;;;;;;10.88;9.95;;;44.90;24.80;;;;;;6202227;28;20233;-68
2022/05/12 08:31:44;;;;;;;10.77;9.55;;;43.80;25.80;;;;;;6225219;28;20212;-64
2022/05/12 08:34:47;;;;;;;10.93;9.88;;;42.30;27.10;;;;;;6246602;28;20682;-66
2022/05/12 08:37:51;;;;;;;10.68;9.60;;;40.90;28.00;;;;;;6250012;28;20223;-66
2022/05/12 08:41:09;;;;;;;12.13;10.40;;;39.90;29.20;;;;;;6250101;28;20200;-66
2022/05/12 08:44:16;;;;;;;10.95;9.93;;;39.00;30.70;;;;;;6250233;28;20536;-66
2022/05/12 08:47:26;;;;;;;10.57;9.55;;;38.10;32.00;;;;;;6249560;28;20231;-64
2022/05/12 08:50:32;;;;;;;11.18;10.18;;;37.10;33.20;;;;;;6249876;28;20234;-66
2022/05/12 08:53:45;;;;;;;11.23;10.05;;;36.20;34.60;;;;;;6249334;28;20895;-63
2022/05/12 08:56:52;;;;;;;12.30;10.95;;;35.60;35.60;;;;;;6245027;28;20664;-65
2022/05/12 08:59:56;;;;;;;11.52;10.52;;;34.90;37.10;;;;;;6242134;28;20301;-64
2022/05/12 09:03:07;;;;;;;11.02;9.95;;;34.50;38.20;;;;;;6225411;28;20578;-65
2022/05/12 09:06:18;;;;;;;10.30;9.40;;;34.30;39.50;;;;;;6225181;28;20774;-64
2022/05/12 09:09:30;;;;;;;10.27;9.35;;;33.90;39.00;;;;;;6225341;28;20225;-65
2022/05/12 09:12:39;;;;;;;10.48;9.35;;;33.40;38.80;;;;;;6225025;28;20271;-66
2022/05/12 09:15:47;;;;;;;12.68;9.88;;;33.00;39.60;;;;;;6224875;28;20229;-65
2022/05/12 09:18:51;;;;;;;20.75;10.77;;;32.70;40.90;;;;;;6225103;28;20243;-65
2022/05/12 09:21:55;;;;;;;9.15;8.25;;;32.50;40.70;;;;;;6225411;28;20220;-64
2022/05/12 09:24:59;;;;;;;10.00;9.10;;;32.30;39.00;;;;;;6224762;28;20232;-61
2022/05/12 09:28:20;;;;;;;11.93;9.32;;;32.10;40.60;;;;;;6240993;28;20231;-65
2022/05/12 09:31:24;;;;;;;10.43;9.45;;;32.10;41.00;;;;;;6253978;28;20239;-62
2022/05/12 09:34:31;;;;;;;9.25;8.27;;;32.10;41.20;;;;;;6234568;28;20220;-64
2022/05/12 09:37:36;;;;;;;9.70;8.80;;;32.10;41.40;;;;;;6229400;28;20731;-62
2022/05/12 09:40:41;;;;;;;10.77;8.27;;;32.10;41.80;;;;;;6229626;28;20240;-63
2022/05/12 09:43:45;;;;;;;8.88;7.63;;;32.20;39.80;;;;;;6228846;28;20205;-63
2022/05/12 09:46:58;;;;;;;9.10;8.30;;;32.10;40.10;;;;;;6229148;28;20234;-64
2022/05/12 09:50:16;;;;;;;7.93;7.32;;;32.00;39.50;;;;;;6228885;28;20768;-64
2022/05/12 09:53:27;;;;;;;9.13;8.32;;;32.00;39.40;;;;;;6229136;28;20229;-65
2022/05/12 09:56:36;;;;;;;8.50;8.00;;;31.90;37.80;;;;;;6228911;28;20248;-66
2022/05/12 09:59:41;;;;;;;7.60;7.00;;;31.70;38.00;;;;;;6233966;28;20219;-64
2022/05/12 10:09:51;;;;;;;7.47;6.78;;;31.90;35.10;;;;;;6253111;28;20228;-64
2022/05/12 10:12:59;;;;;;;7.35;6.60;;;32.00;35.40;;;;;;6252627;28;20675;-63
2022/05/12 10:16:02;;;;;;;7.20;6.70;;;32.00;35.40;;;;;;6252718;28;20235;-63
2022/05/12 10:19:12;;;;;;;7.38;6.55;;;32.00;35.00;;;;;;6252623;28;20232;-63
2022/05/12 10:22:18;;;;;;;7.07;6.40;;;32.20;34.40;;;;;;6252454;28;20672;-63
2022/05/12 10:25:58;;;;;;;6.60;5.95;;;32.40;33.70;;;;;;6252606;28;20224;-64
2022/05/12 10:29:10;;;;;;;5.95;5.53;;;32.40;33.60;;;;;;6250670;28;20228;-64
2022/05/12 10:32:33;;;;;;;7.15;5.38;;;32.50;33.40;;;;;;6251914;28;20234;-62
2022/05/12 10:35:42;;;;;;;6.25;5.65;;;32.70;33.40;;;;;;6227894;28;20237;-63
2022/05/12 10:38:50;;;;;;;6.30;5.80;;;32.50;33.00;;;;;;6227355;28;20237;-63
2022/05/12 10:42:10;;;;;;;7.28;6.25;;;32.40;33.10;;;;;;6227323;28;20244;-63
2022/05/12 10:45:23;;;;;;;5.97;5.57;;;32.50;33.80;;;;;;6227723;28;20220;-63
2022/05/12 10:48:41;;;;;;;6.78;6.18;;;32.80;33.00;;;;;;6258560;28;20232;-63
2022/05/12 10:51:54;;;;;;;6.47;5.90;;;32.80;32.30;;;;;;6263425;28;20224;-63
2022/05/12 10:55:10;;;;;;;10.50;5.97;;;33.00;34.00;;;;;;6261198;28;20556;-64
2022/05/12 10:58:26;;;;;;;6.72;5.95;;;32.80;31.70;;;;;;6259877;28;20228;-63
2022/05/12 11:01:36;;;;;;;7.10;5.13;;;32.70;32.60;;;;;;6263194;28;20366;-63
2022/05/12 11:04:42;;;;;;;5.90;5.50;;;32.50;33.60;;;;;;6235529;28;20679;-63
2022/05/12 11:07:51;;;;;;;6.20;5.60;;;32.70;32.70;;;;;;6261668;28;20361;-61
2022/05/12 11:10:57;;;;;;;6.90;6.43;;;33.10;32.50;;;;;;6250727;28;20203;-63
2022/05/12 11:14:07;;;;;;;7.00;6.50;;;33.10;33.60;;;;;;6250955;28;20231;-62
2022/05/12 11:17:18;;;;;;;6.80;6.30;;;33.20;33.40;;;;;;6251073;28;20223;-62
2022/05/12 11:20:28;;;;;;;6.72;6.00;;;33.20;33.00;;;;;;6249549;28;20276;-62
2022/05/12 11:23:47;;;;;;;6.75;6.28;;;33.00;32.90;;;;;;6250873;28;20505;-66
2022/05/12 11:27:21;;;;;;;7.13;6.53;;;32.80;32.70;;;;;;6248187;28;20247;-63
2022/05/12 11:30:34;;;;;;;6.63;6.13;;;32.60;33.30;;;;;;6250611;28;20242;-63
2022/05/12 11:33:42;;;;;;;5.85;5.38;;;33.00;32.80;;;;;;6239236;28;20221;-65
2022/05/12 11:36:47;;;;;;;6.32;5.72;;;33.10;32.60;;;;;;6226326;28;20232;-65
2022/05/12 11:39:55;;;;;;;7.72;5.80;;;33.30;32.40;;;;;;6226897;28;20232;-66
2022/05/12 11:46:45;;;;;;;5.60;5.10;;;32.80;31.90;;;;;;6225850;28;20245;-65
2022/05/12 11:50:15;;;;;;;6.80;6.20;;;32.30;33.40;;;;;;6225975;28;20591;-66
2022/05/12 11:53:21;;;;;;;10.65;6.40;;;32.30;33.60;;;;;;6225473;28;20339;-65
2022/05/12 11:56:48;;;;;;;5.20;4.80;;;32.50;33.40;;;;;;6226481;28;20250;-64
2022/05/12 11:59:53;;;;;;;6.00;5.40;;;32.50;33.10;;;;;;6233186;28;20303;-64
2022/05/12 12:02:56;;;;;;;6.50;6.00;;;32.50;33.00;;;;;;6250616;28;20231;-64
2022/05/12 12:06:05;;;;;;;5.93;5.43;;;32.50;33.00;;;;;;6250371;28;20319;-64
2022/05/12 12:09:50;;;;;;;6.05;5.63;;;32.30;32.70;;;;;;6250708;28;20236;-63
2022/05/12 12:13:00;;;;;;;8.45;6.43;;;32.20;33.20;;;;;;6250799;28;20358;-63
2022/05/12 12:16:08;;;;;;;6.82;5.70;;;32.00;34.00;;;;;;6250368;28;20243;-63
2022/05/12 12:19:42;;;;;;;6.28;5.75;;;32.20;34.70;;;;;;6251050;28;20275;-63
2022/05/12 12:22:49;;;;;;;7.50;6.25;;;32.40;33.70;;;;;;6250692;28;20581;-63
2022/05/12 12:26:02;;;;;;;6.43;5.90;;;32.30;32.40;;;;;;6249571;28;20291;-65
2022/05/12 12:29:15;;;;;;;5.85;5.45;;;32.50;31.50;;;;;;6248698;28;20666;-65
2022/05/12 12:32:29;;;;;;;6.30;5.80;;;32.70;32.50;;;;;;6248759;28;20638;-64
2022/05/12 12:35:48;;;;;;;6.65;6.05;;;32.50;33.60;;;;;;6225494;28;20232;-65
2022/05/12 12:39:10;;;;;;;11.55;5.57;;;32.70;33.80;;;;;;6225391;28;20703;-64
2022/05/12 12:42:41;;;;;;;6.82;5.90;;;32.50;33.30;;;;;;6225336;28;20233;-65
2022/05/12 12:45:48;;;;;;;6.25;5.75;;;32.30;33.30;;;;;;6225106;28;20269;-65
2022/05/12 12:48:56;;;;;;;6.13;5.40;;;32.30;33.80;;;;;;6225421;28;20228;-65
2022/05/12 12:52:07;;;;;;;5.88;5.07;;;32.30;32.70;;;;;;6225687;28;20232;-64
2022/05/12 12:58:43;;;;;;;6.55;5.45;;;31.80;33.50;;;;;;6201332;28;20229;-65
2022/05/12 13:01:50;;;;;;;7.57;5.65;;;31.80;33.30;;;;;;6247526;28;20196;-66
2022/05/12 13:04:55;;;;;;;6.35;5.80;;;32.20;33.50;;;;;;6254405;28;20622;-64
2022/05/12 13:08:01;;;;;;;5.97;5.47;;;32.10;32.70;;;;;;6254503;28;20246;-64
2022/05/12 13:11:07;;;;;;;6.32;5.65;;;32.20;32.50;;;;;;6250148;28;20243;-63
2022/05/12 13:14:14;;;;;;;6.32;5.72;;;32.30;32.10;;;;;;6254498;28;20237;-63
2022/05/12 13:17:20;;;;;;;5.93;5.53;;;32.40;32.10;;;;;;6253901;28;20243;-64
2022/05/12 13:20:26;;;;;;;5.72;5.20;;;32.50;32.40;;;;;;6254156;28;20238;-62
2022/05/12 13:23:32;;;;;;;6.53;5.43;;;32.50;31.70;;;;;;6254539;28;20225;-62
2022/05/12 13:26:37;;;;;;;6.20;5.55;;;32.30;31.70;;;;;;6254112;28;20223;-63
2022/05/12 13:29:41;;;;;;;5.78;4.88;;;32.30;31.80;;;;;;6281259;28;20231;-63
2022/05/12 13:32:47;;;;;;;5.85;5.35;;;32.50;31.70;;;;;;6285573;28;20227;-63
2022/05/12 13:35:59;;;;;;;5.10;4.70;;;32.80;31.20;;;;;;6286355;28;20249;-63
2022/05/12 13:39:02;;;;;;;5.55;5.10;;;33.00;31.50;;;;;;6282234;28;20227;-63
2022/05/12 13:42:09;;;;;;;5.75;5.28;;;32.80;31.60;;;;;;6278584;28;20242;-63
2022/05/12 13:45:23;;;;;;;6.90;6.13;;;32.40;30.30;;;;;;6268115;28;20301;-63
2022/05/12 13:48:27;;;;;;;7.60;5.65;;;32.00;31.40;;;;;;6261811;28;20223;-62
2022/05/12 13:51:47;;;;;;;5.88;5.35;;;32.00;32.00;;;;;;6253963;28;20235;-62
2022/05/12 13:55:19;;;;;;;6.05;5.45;;;31.80;33.40;;;;;;6251513;28;20231;-62
2022/05/12 13:58:23;;;;;;;7.50;5.80;;;31.80;33.70;;;;;;6237013;28;20680;-62
2022/05/12 14:01:30;;;;;;;6.30;5.80;;;31.80;34.20;;;;;;6229269;28;20657;-62
2022/05/12 14:04:39;;;;;;;6.70;6.10;;;31.80;34.50;;;;;;6228358;28;20224;-62
2022/05/12 14:07:43;;;;;;;6.63;6.15;;;31.80;35.10;;;;;;6227973;28;20303;-63
2022/05/12 14:10:49;;;;;;;6.97;6.38;;;31.60;35.40;;;;;;6228287;28;20200;-62
2022/05/12 14:20:43;;;;;;;6.18;5.78;;;31.80;35.40;;;;;;6252966;28;20239;-63
2022/05/12 14:23:46;;;;;;;6.68;6.07;;;31.70;34.90;;;;;;6252914;28;20227;-63
2022/05/12 14:26:50;;;;;;;8.43;6.80;;;31.80;35.30;;;;;;6249881;28;20211;-63
2022/05/12 14:30:01;;;;;;;6.88;6.28;;;31.90;34.90;;;;;;6252292;28;20228;-62
2022/05/12 14:33:05;;;;;;;6.18;5.07;;;31.90;35.30;;;;;;6254459;28;20224;-63
2022/05/12 14:36:08;;;;;;;6.22;5.70;;;32.00;35.00;;;;;;6252272;28;20231;-63
2022/05/12 14:39:11;;;;;;;6.60;6.10;;;32.00;35.90;;;;;;6252540;28;20239;-62
2022/05/12 14:42:14;;;;;;;7.28;6.68;;;32.00;34.40;;;;;;6252268;28;20584;-64
2022/05/12 14:45:20;;;;;;;6.60;6.10;;;31.90;34.80;;;;;;6252131;28;20986;-64
2022/05/12 14:48:25;;;;;;;6.50;5.85;;;31.80;34.50;;;;;;6251671;28;20236;-64
2022/05/12 14:51:28;;;;;;;8.23;5.40;;;31.80;34.30;;;;;;6252303;28;20224;-64
2022/05/12 14:54:31;;;;;;;7.20;6.53;;;31.70;34.50;;;;;;6252072;28;20223;-63
2022/05/12 14:57:35;;;;;;;5.82;5.43;;;31.60;35.40;;;;;;6251903;28;20239;-64
2022/05/12 15:00:41;;;;;;;7.55;6.85;;;31.50;34.80;;;;;;6237903;28;20236;-64
2022/05/12 15:03:46;;;;;;;7.13;6.53;;;31.40;35.00;;;;;;6232390;28;20545;-63
2022/05/12 15:06:50;;;;;;;6.40;5.82;;;31.40;34.30;;;;;;6251696;28;20287;-64
2022/05/12 15:09:53;;;;;;;6.25;5.65;;;31.40;34.30;;;;;;6251547;28;20231;-63
2022/05/12 15:12:57;;;;;;;6.45;5.85;;;31.40;34.60;;;;;;6251656;28;20223;-63
2022/05/12 15:16:02;;;;;;;6.85;5.88;;;31.10;34.40;;;;;;6251149;28;20230;-63
2022/05/12 15:19:05;;;;;;;5.63;5.10;;;31.10;34.80;;;;;;6240809;28;20695;-65
2022/05/12 15:22:08;;;;;;;5.53;5.13;;;31.20;35.10;;;;;;6249428;28;20852;-66
2022/05/12 15:25:12;;;;;;;7.43;6.80;;;31.20;35.80;;;;;;6249381;28;20227;-64
2022/05/12 15:28:23;;;;;;;5.88;5.38;;;31.10;35.70;;;;;;6247911;28;20656;-64
2022/05/12 15:31:28;;;;;;;6.20;5.70;;;31.10;35.70;;;;;;6248273;28;20231;-63
2022/05/12 15:34:31;;;;;;;8.63;6.55;;;31.10;35.70;;;;;;6230753;28;20239;-64
2022/05/12 15:37:34;;;;;;;7.65;6.75;;;31.20;35.40;;;;;;6224860;28;20236;-64
2022/05/12 15:40:37;;;;;;;7.65;7.03;;;31.30;36.00;;;;;;6224634;28;20232;-64
2022/05/12 15:43:40;;;;;;;6.40;5.90;;;31.10;34.10;;;;;;6226544;28;20233;-64
2022/05/12 15:46:47;;;;;;;8.82;6.60;;;31.00;34.80;;;;;;6201148;28;20220;-63
2022/05/12 15:49:50;;;;;;;6.45;5.90;;;31.00;35.10;;;;;;6225741;28;20201;-63
2022/05/12 15:52:54;;;;;;;6.78;6.18;;;30.80;35.40;;;;;;6226051;28;20209;-64
2022/05/12 15:55:57;;;;;;;6.93;6.38;;;30.70;36.00;;;;;;6226243;28;20660;-64
2022/05/12 15:59:00;;;;;;;6.65;6.00;;;30.70;36.30;;;;;;6250658;28;20539;-64
2022/05/12 16:02:10;;;;;;;6.70;6.10;;;30.70;36.90;;;;;;6225382;28;20251;-64
2022/05/12 16:05:14;;;;;;;7.30;6.57;;;30.60;37.40;;;;;;6225742;28;20229;-64
2022/05/12 16:08:17;;;;;;;7.63;7.00;;;30.70;37.10;;;;;;6225364;28;20236;-64
2022/05/12 16:11:34;;;;;;;7.70;7.03;;;30.70;37.40;;;;;;6225520;28;20224;-64
2022/05/12 16:14:43;;;;;;;8.20;7.40;;;30.70;37.90;;;;;;6225509;28;20544;-64
2022/05/12 16:17:49;;;;;;;7.27;6.67;;;30.40;38.40;;;;;;6225533;28;20323;-64
2022/05/12 16:20:52;;;;;;;7.67;6.93;;;30.20;38.90;;;;;;6220595;28;20308;-64
2022/05/12 16:24:00;;;;;;;8.05;7.30;;;30.30;39.30;;;;;;6226073;28;20279;-64
2022/05/12 16:27:06;;;;;;;8.20;7.57;;;30.20;39.50;;;;;;6225029;28;20233;-64
2022/05/12 16:30:13;;;;;;;9.30;7.03;;;30.30;39.60;;;;;;6225975;28;20228;-64
2022/05/12 16:33:18;;;;;;;9.37;7.60;;;30.20;39.90;;;;;;6234801;28;20223;-64
2022/05/12 16:36:21;;;;;;;7.57;6.93;;;30.20;40.10;;;;;;6250026;28;20231;-64